Time;durP1;ratioP1;P1;durP2;ratioP2;P2;SDS_P1;SDS_P2;PMS_P1;PMS_P2;Temp;Humidity;BMP_temperature;BMP_pressure;BME280_temperature;BME280_humidity;BME280_pressure;Samples;Min_cycle;Max_cycle;Signal;HPM_P1;HPM_P2
2022/09/18 00:00:56;;;;;;;1.65;0.70;;;21.80;53.80;;;;;;5027838;28;20032;-64
2022/09/18 00:03:22;;;;;;;0.73;0.50;;;21.80;53.90;;;;;;5030345;28;20037;-64
2022/09/18 00:05:47;;;;;;;0.98;0.60;;;21.80;53.90;;;;;;5030402;28;20022;-64
2022/09/18 00:08:13;;;;;;;0.55;0.50;;;21.80;53.90;;;;;;5030410;28;20239;-64
2022/09/18 00:10:40;;;;;;;0.77;0.50;;;21.80;53.90;;;;;;5030266;28;20132;-64
2022/09/18 00:13:06;;;;;;;0.73;0.52;;;21.80;53.90;;;;;;5032238;28;20037;-64
2022/09/18 00:15:31;;;;;;;0.60;0.60;;;21.80;53.90;;;;;;5033866;28;20403;-64
2022/09/18 00:17:57;;;;;;;0.60;0.50;;;21.80;53.90;;;;;;5033864;28;20030;-63
2022/09/18 00:20:23;;;;;;;0.80;0.60;;;21.80;53.90;;;;;;5033908;28;20041;-64
2022/09/18 00:22:48;;;;;;;1.00;0.60;;;21.80;53.90;;;;;;5033829;28;20381;-63
2022/09/18 00:25:14;;;;;;;0.90;0.60;;;21.80;53.90;;;;;;5033878;28;20026;-63
2022/09/18 00:27:39;;;;;;;0.60;0.60;;;21.80;53.90;;;;;;5033781;28;20025;-64
2022/09/18 00:30:06;;;;;;;1.48;0.70;;;21.80;53.90;;;;;;5033278;28;20026;-63
2022/09/18 00:32:32;;;;;;;0.77;0.60;;;21.80;53.90;;;;;;5033706;28;20122;-64
2022/09/18 00:34:57;;;;;;;0.70;0.60;;;21.80;53.90;;;;;;5033668;28;20081;-63
2022/09/18 00:37:23;;;;;;;0.60;0.50;;;21.80;53.90;;;;;;5033602;28;20022;-63
2022/09/18 00:39:48;;;;;;;0.50;0.50;;;21.80;53.90;;;;;;5033677;28;20029;-63
2022/09/18 00:42:17;;;;;;;0.82;0.60;;;21.80;53.90;;;;;;5033497;28;20515;-63
2022/09/18 00:44:47;;;;;;;0.68;0.60;;;21.80;53.90;;;;;;5033014;28;20083;-63
2022/09/18 00:47:34;;;;;;;0.88;0.60;;;21.80;53.90;;;;;;5033454;28;20404;-63
2022/09/18 00:50:08;;;;;;;0.90;0.60;;;21.70;53.90;;;;;;5033179;28;20037;-63
2022/09/18 00:52:43;;;;;;;1.25;0.60;;;21.80;54.00;;;;;;5033492;28;20041;-63
2022/09/18 00:55:10;;;;;;;0.60;0.52;;;21.70;53.80;;;;;;5032081;28;20108;-63
2022/09/18 00:57:42;;;;;;;0.73;0.60;;;21.80;53.90;;;;;;5033292;28;20108;-63
2022/09/18 01:00:11;;;;;;;0.65;0.60;;;21.70;53.90;;;;;;5032792;28;20095;-63
2022/09/18 01:02:41;;;;;;;;;;;21.80;53.90;;;;;;5053299;28;20056;-64
2022/09/18 01:05:08;;;;;;;1.00;0.60;;;21.70;53.90;;;;;;5051591;28;20023;-63
2022/09/18 01:07:46;;;;;;;0.80;0.60;;;21.70;53.80;;;;;;5052948;28;20037;-63
2022/09/18 01:10:20;;;;;;;0.90;0.60;;;21.70;53.90;;;;;;5051252;28;20021;-63
2022/09/18 01:12:57;;;;;;;0.75;0.57;;;21.70;53.80;;;;;;5053115;28;20538;-63
2022/09/18 01:15:45;;;;;;;1.75;0.75;;;21.70;53.80;;;;;;5052558;28;20095;-63
2022/09/18 01:18:11;;;;;;;0.70;0.60;;;21.70;53.80;;;;;;5052122;28;20047;-63
2022/09/18 01:20:58;;;;;;;0.60;0.50;;;21.70;53.80;;;;;;5052625;28;20469;-63
2022/09/18 01:24:01;;;;;;;0.50;0.50;;;21.70;53.90;;;;;;5042342;28;20029;-63
2022/09/18 01:26:49;;;;;;;1.48;0.50;;;21.70;53.90;;;;;;5052616;28;20380;-63
2022/09/18 01:29:43;;;;;;;0.88;0.55;;;21.70;53.90;;;;;;5052590;28;20383;-63
2022/09/18 01:32:28;;;;;;;0.50;0.45;;;21.70;53.90;;;;;;5051007;28;20071;-63
2022/09/18 01:35:17;;;;;;;0.60;0.50;;;21.70;53.90;;;;;;5052582;28;20120;-63
2022/09/18 01:37:54;;;;;;;0.70;0.50;;;21.70;53.90;;;;;;5051232;28;20025;-63
2022/09/18 01:40:32;;;;;;;0.52;0.47;;;21.70;53.90;;;;;;5051892;28;20488;-63
2022/09/18 01:43:01;;;;;;;0.50;0.50;;;21.70;53.90;;;;;;5051357;28;20021;-63
2022/09/18 01:45:32;;;;;;;1.00;0.50;;;21.70;53.90;;;;;;5051823;28;20419;-63
2022/09/18 01:48:04;;;;;;;0.70;0.50;;;21.70;53.90;;;;;;5052200;28;20146;-63
2022/09/18 01:50:33;;;;;;;0.57;0.57;;;21.70;53.90;;;;;;5052098;28;20021;-63
2022/09/18 01:53:04;;;;;;;0.65;0.40;;;21.70;54.40;;;;;;5052172;28;20036;-63
2022/09/18 01:55:33;;;;;;;0.68;0.60;;;21.70;53.90;;;;;;5052090;28;20025;-63
2022/09/18 01:58:10;;;;;;;0.50;0.50;;;21.60;53.80;;;;;;5051884;28;20072;-63
2022/09/18 02:00:40;;;;;;;0.60;0.50;;;21.60;53.80;;;;;;5050489;28;20033;-63
2022/09/18 02:03:14;;;;;;;1.02;0.60;;;21.60;53.80;;;;;;5052082;28;20515;-63
2022/09/18 02:05:45;;;;;;;0.60;0.50;;;21.60;53.80;;;;;;5050880;28;20063;-64
2022/09/18 02:08:26;;;;;;;1.20;0.60;;;21.60;53.80;;;;;;5051842;28;20487;-63
2022/09/18 02:10:58;;;;;;;1.02;0.68;;;21.60;53.80;;;;;;5050594;28;20090;-63
2022/09/18 02:13:31;;;;;;;0.50;0.50;;;21.60;53.90;;;;;;5050989;28;20517;-63
2022/09/18 02:16:02;;;;;;;0.90;0.70;;;21.60;53.90;;;;;;5051215;28;20045;-63
2022/09/18 02:18:34;;;;;;;0.70;0.60;;;21.60;53.90;;;;;;5051659;28;20390;-63
2022/09/18 02:21:01;;;;;;;0.50;0.50;;;21.60;53.90;;;;;;5051208;28;20049;-63
2022/09/18 02:23:28;;;;;;;0.55;0.50;;;21.60;53.90;;;;;;5051601;28;20033;-63
2022/09/18 02:25:58;;;;;;;0.60;0.50;;;21.60;53.80;;;;;;5051486;28;20024;-63
2022/09/18 02:28:26;;;;;;;0.60;0.55;;;21.60;54.40;;;;;;5051554;28;20146;-63
2022/09/18 02:30:51;;;;;;;0.50;0.50;;;21.60;53.90;;;;;;5050881;28;20029;-63
2022/09/18 02:33:31;;;;;;;0.70;0.50;;;21.60;53.90;;;;;;5051342;28;20484;-63
2022/09/18 02:36:11;;;;;;;1.02;0.60;;;21.60;53.90;;;;;;5049083;28;20025;-63
2022/09/18 02:38:45;;;;;;;0.80;0.55;;;21.60;53.90;;;;;;5051634;28;20028;-63
2022/09/18 02:41:28;;;;;;;0.82;0.50;;;21.60;53.80;;;;;;5051326;28;20024;-63
2022/09/18 02:44:06;;;;;;;0.70;0.50;;;21.60;53.90;;;;;;5051366;28;20087;-63
2022/09/18 02:46:50;;;;;;;0.65;0.57;;;21.60;53.80;;;;;;5050884;28;20082;-63
2022/09/18 02:49:37;;;;;;;1.10;0.65;;;21.60;53.90;;;;;;5051036;28;20036;-63
2022/09/18 02:52:12;;;;;;;0.70;0.50;;;21.60;53.90;;;;;;5051034;28;20116;-63
2022/09/18 02:54:46;;;;;;;0.98;0.60;;;21.60;53.90;;;;;;5050009;28;20443;-63
2022/09/18 02:57:19;;;;;;;0.43;0.40;;;21.50;53.80;;;;;;5051216;28;20112;-63
2022/09/18 02:59:50;;;;;;;0.70;0.50;;;21.60;53.90;;;;;;5050575;28;20036;-63
2022/09/18 03:02:15;;;;;;;0.75;0.50;;;21.50;53.80;;;;;;5032298;28;20052;-63
2022/09/18 03:04:41;;;;;;;0.47;0.47;;;21.50;53.80;;;;;;5031381;28;20106;-63
2022/09/18 03:07:07;;;;;;;0.55;0.55;;;21.50;54.40;;;;;;5030953;28;20477;-64
2022/09/18 03:09:33;;;;;;;1.15;0.60;;;21.50;53.80;;;;;;5030984;28;20373;-63
2022/09/18 03:12:02;;;;;;;0.75;0.50;;;21.50;53.80;;;;;;5030856;28;20484;-64
2022/09/18 03:14:28;;;;;;;0.70;0.52;;;21.50;53.90;;;;;;5028168;28;20041;-63
2022/09/18 03:16:54;;;;;;;0.40;0.40;;;21.50;53.80;;;;;;5030873;28;20029;-64
2022/09/18 03:19:19;;;;;;;0.52;0.50;;;21.50;53.80;;;;;;5030925;28;20026;-63
2022/09/18 03:21:45;;;;;;;0.50;0.50;;;21.50;53.90;;;;;;5030714;28;20041;-63
2022/09/18 03:24:11;;;;;;;0.43;0.43;;;21.50;53.80;;;;;;5030831;28;20029;-63
2022/09/18 03:26:37;;;;;;;0.45;0.45;;;21.50;53.90;;;;;;5022170;28;20508;-63
2022/09/18 03:29:07;;;;;;;1.00;0.55;;;21.50;53.90;;;;;;5031176;28;20033;-64
2022/09/18 03:31:33;;;;;;;0.60;0.50;;;21.50;53.90;;;;;;5029547;28;20037;-63
2022/09/18 03:33:58;;;;;;;1.27;0.60;;;21.50;53.90;;;;;;5030711;28;20426;-63
2022/09/18 03:36:24;;;;;;;0.63;0.50;;;21.50;53.90;;;;;;5030748;28;20032;-64
2022/09/18 03:38:50;;;;;;;0.50;0.50;;;21.50;53.90;;;;;;5030764;28;20466;-63
2022/09/18 03:41:15;;;;;;;0.55;0.50;;;21.50;53.90;;;;;;5030585;28;20389;-64
2022/09/18 03:43:41;;;;;;;0.55;0.40;;;21.50;53.90;;;;;;5030655;28;20090;-63
2022/09/18 03:46:06;;;;;;;0.57;0.43;;;21.50;53.90;;;;;;5032108;28;20033;-63
2022/09/18 03:48:32;;;;;;;0.50;0.50;;;21.50;53.90;;;;;;5034550;28;20404;-64
2022/09/18 03:50:58;;;;;;;0.50;0.50;;;21.50;53.90;;;;;;5034487;28;20472;-63
2022/09/18 03:53:23;;;;;;;0.45;0.40;;;21.50;53.90;;;;;;5034621;28;20354;-63
2022/09/18 03:55:49;;;;;;;0.50;0.40;;;21.50;53.90;;;;;;5034446;28;20436;-63
2022/09/18 03:58:15;;;;;;;0.73;0.50;;;21.50;53.90;;;;;;5034471;28;20033;-64
2022/09/18 04:00:40;;;;;;;0.40;0.30;;;21.50;53.90;;;;;;5033950;28;20041;-63
2022/09/18 04:03:06;;;;;;;0.77;0.55;;;21.50;53.90;;;;;;5033639;28;20440;-63
2022/09/18 04:05:32;;;;;;;1.08;0.45;;;21.50;53.90;;;;;;5034329;28;20083;-63
2022/09/18 04:07:58;;;;;;;1.15;0.60;;;21.50;53.90;;;;;;5034193;28;20041;-63
2022/09/18 04:10:25;;;;;;;1.38;0.40;;;21.50;53.90;;;;;;5034062;28;20071;-64
2022/09/18 04:12:51;;;;;;;1.75;0.88;;;21.50;54.40;;;;;;5034194;28;20456;-63
2022/09/18 04:15:17;;;;;;;0.60;0.40;;;21.50;53.90;;;;;;5033990;28;20116;-64
2022/09/18 04:17:43;;;;;;;0.40;0.40;;;21.40;53.90;;;;;;5016266;28;20048;-63
2022/09/18 04:20:10;;;;;;;1.05;0.52;;;21.40;53.90;;;;;;5015496;28;20029;-63
2022/09/18 04:22:36;;;;;;;1.00;0.60;;;21.40;53.90;;;;;;5033996;28;20380;-64
2022/09/18 04:25:03;;;;;;;0.52;0.47;;;21.40;53.90;;;;;;5034076;28;20056;-63
2022/09/18 04:27:29;;;;;;;0.68;0.50;;;21.40;53.90;;;;;;5034019;28;20117;-63
2022/09/18 04:29:55;;;;;;;0.68;0.43;;;21.40;53.90;;;;;;5033766;28;20125;-63
2022/09/18 04:32:20;;;;;;;0.82;0.60;;;21.40;53.90;;;;;;5051956;28;20396;-64
2022/09/18 04:34:46;;;;;;;0.85;0.60;;;21.40;53.90;;;;;;5052993;28;20025;-64
2022/09/18 04:37:11;;;;;;;0.90;0.60;;;21.40;53.90;;;;;;5053606;28;20036;-63
2022/09/18 04:39:37;;;;;;;0.38;0.38;;;21.40;53.90;;;;;;5053518;28;20484;-63
2022/09/18 04:42:03;;;;;;;0.80;0.57;;;21.40;53.90;;;;;;5053503;28;20057;-64
2022/09/18 04:44:29;;;;;;;0.47;0.40;;;21.40;53.90;;;;;;5053385;28;20029;-63
2022/09/18 04:46:55;;;;;;;0.40;0.40;;;21.40;53.90;;;;;;5053421;28;20378;-63
2022/09/18 04:49:20;;;;;;;1.00;0.60;;;21.40;53.90;;;;;;5053457;28;20048;-63
2022/09/18 04:51:46;;;;;;;0.60;0.50;;;21.40;53.90;;;;;;5053516;28;20104;-63
2022/09/18 04:54:12;;;;;;;0.40;0.40;;;21.40;53.90;;;;;;5053340;28;20024;-63
2022/09/18 04:56:39;;;;;;;0.50;0.40;;;21.40;53.90;;;;;;5053190;28;20104;-64
2022/09/18 04:59:05;;;;;;;0.40;0.40;;;21.40;53.90;;;;;;5052521;28;20155;-63
2022/09/18 05:01:31;;;;;;;0.47;0.43;;;21.40;54.00;;;;;;5039827;28;20084;-63
2022/09/18 05:03:56;;;;;;;0.70;0.50;;;21.40;54.00;;;;;;5033036;28;20033;-63
2022/09/18 05:06:23;;;;;;;0.60;0.50;;;21.40;54.00;;;;;;5033079;28;20057;-64
2022/09/18 05:08:48;;;;;;;0.40;0.40;;;21.40;54.00;;;;;;5033357;28;20121;-63
2022/09/18 05:11:14;;;;;;;0.73;0.60;;;21.40;54.00;;;;;;5032931;28;20068;-63
2022/09/18 05:13:40;;;;;;;0.40;0.40;;;21.30;54.00;;;;;;5033011;28;20091;-63
2022/09/18 05:16:06;;;;;;;0.40;0.40;;;21.40;54.00;;;;;;5032782;28;20049;-63
2022/09/18 05:18:32;;;;;;;0.43;0.43;;;21.40;54.00;;;;;;5032870;28;20022;-63
2022/09/18 05:21:01;;;;;;;0.82;0.55;;;21.30;54.00;;;;;;5032874;28;20393;-63
2022/09/18 05:23:27;;;;;;;0.40;0.40;;;21.40;54.00;;;;;;5032424;28;20477;-63
2022/09/18 05:25:53;;;;;;;0.68;0.55;;;21.30;53.90;;;;;;5014863;28;20022;-63
2022/09/18 05:28:18;;;;;;;0.73;0.50;;;21.30;54.00;;;;;;5032651;28;20065;-63
2022/09/18 05:30:44;;;;;;;0.40;0.40;;;21.30;54.00;;;;;;5032081;28;20120;-63
2022/09/18 05:33:10;;;;;;;0.75;0.50;;;21.30;54.00;;;;;;5032637;28;20022;-63
2022/09/18 05:35:38;;;;;;;0.40;0.40;;;21.30;54.00;;;;;;5032592;28;20033;-63
2022/09/18 05:38:04;;;;;;;0.40;0.40;;;21.30;54.50;;;;;;5031808;28;20151;-64
2022/09/18 05:40:35;;;;;;;0.47;0.40;;;21.30;54.00;;;;;;5032450;28;20064;-63
2022/09/18 05:43:02;;;;;;;0.40;0.40;;;21.30;54.00;;;;;;5031749;28;20473;-63
2022/09/18 05:45:27;;;;;;;0.68;0.40;;;21.30;54.50;;;;;;5032030;28;20044;-63
2022/09/18 05:47:58;;;;;;;0.40;0.40;;;21.30;54.00;;;;;;5032111;28;20045;-63
2022/09/18 05:50:25;;;;;;;0.50;0.40;;;21.30;54.00;;;;;;5030124;28;20025;-63
2022/09/18 05:53:05;;;;;;;0.40;0.40;;;21.30;54.00;;;;;;5032480;28;20021;-63
2022/09/18 05:55:32;;;;;;;0.60;0.50;;;21.30;54.10;;;;;;5031917;28;20029;-63
2022/09/18 05:57:59;;;;;;;0.50;0.40;;;21.30;54.00;;;;;;5014411;28;20086;-64
2022/09/18 06:00:26;;;;;;;0.65;0.43;;;21.30;54.00;;;;;;5031590;28;20438;-64
2022/09/18 06:02:54;;;;;;;0.73;0.50;;;21.30;54.00;;;;;;5031923;28;20469;-64
2022/09/18 06:05:19;;;;;;;0.85;0.40;;;21.30;54.00;;;;;;5032005;28;20028;-63
2022/09/18 06:07:45;;;;;;;0.40;0.40;;;21.30;54.10;;;;;;5031893;28;20478;-63
2022/09/18 06:10:11;;;;;;;0.57;0.47;;;21.30;54.00;;;;;;5030676;28;20484;-63
2022/09/18 06:12:37;;;;;;;0.50;0.43;;;21.30;54.00;;;;;;5031732;28;20025;-64
2022/09/18 06:15:03;;;;;;;0.40;0.40;;;21.30;54.00;;;;;;5031632;28;20139;-64
2022/09/18 06:17:28;;;;;;;0.43;0.43;;;21.30;54.00;;;;;;5031586;28;20037;-64
2022/09/18 06:19:54;;;;;;;0.30;0.30;;;21.30;54.10;;;;;;5031651;28;20084;-64
2022/09/18 06:22:20;;;;;;;0.70;0.47;;;21.30;54.00;;;;;;5031485;28;20043;-64
2022/09/18 06:24:45;;;;;;;0.82;0.60;;;21.30;54.10;;;;;;5031541;28;20033;-64
2022/09/18 06:27:11;;;;;;;0.40;0.40;;;21.30;54.10;;;;;;5031462;28;20835;-64
2022/09/18 06:29:37;;;;;;;0.82;0.47;;;21.30;54.00;;;;;;5013682;28;20497;-64
2022/09/18 06:32:02;;;;;;;0.35;0.35;;;21.30;54.10;;;;;;5030816;28;20132;-64
2022/09/18 06:34:28;;;;;;;0.40;0.40;;;21.20;54.00;;;;;;5031728;28;20477;-64
2022/09/18 06:36:53;;;;;;;0.52;0.40;;;21.20;54.00;;;;;;5013559;28;20466;-64
2022/09/18 06:39:19;;;;;;;0.30;0.30;;;21.20;54.00;;;;;;5031137;28;20038;-64
2022/09/18 06:41:45;;;;;;;0.60;0.40;;;21.20;54.00;;;;;;5031375;28;20029;-64
2022/09/18 06:44:11;;;;;;;0.40;0.40;;;21.20;54.00;;;;;;5031061;28;20527;-64
2022/09/18 06:46:36;;;;;;;0.63;0.55;;;21.20;54.00;;;;;;5030959;28;20025;-64
2022/09/18 06:49:02;;;;;;;0.60;0.40;;;21.20;54.00;;;;;;5031350;28;20418;-64
2022/09/18 06:51:28;;;;;;;0.30;0.30;;;21.20;54.00;;;;;;5030635;28;20079;-65
2022/09/18 06:53:54;;;;;;;0.47;0.47;;;21.20;54.00;;;;;;5031069;28;20021;-65
2022/09/18 06:56:19;;;;;;;0.60;0.40;;;21.20;54.00;;;;;;5031117;28;20022;-65
2022/09/18 06:58:45;;;;;;;1.15;0.38;;;21.20;54.10;;;;;;5031181;28;20029;-65
2022/09/18 07:01:11;;;;;;;0.57;0.47;;;21.20;54.00;;;;;;5030677;28;20026;-65
2022/09/18 07:03:36;;;;;;;0.32;0.32;;;21.20;54.00;;;;;;5031250;28;20034;-65
2022/09/18 07:06:02;;;;;;;0.73;0.40;;;21.20;54.10;;;;;;5031185;28;20029;-65
2022/09/18 07:08:27;;;;;;;0.40;0.40;;;21.20;54.10;;;;;;5030552;28;20038;-65
2022/09/18 07:10:53;;;;;;;0.40;0.40;;;21.20;54.00;;;;;;5031028;28;20034;-65
2022/09/18 07:13:19;;;;;;;0.45;0.38;;;21.20;54.00;;;;;;5031032;28;20389;-65
2022/09/18 07:15:47;;;;;;;0.43;0.40;;;21.20;54.00;;;;;;5030708;28;20069;-65
2022/09/18 07:18:13;;;;;;;0.60;0.47;;;21.20;54.10;;;;;;5030783;28;20108;-65
2022/09/18 07:20:38;;;;;;;0.60;0.40;;;21.20;54.10;;;;;;5030265;28;20144;-65
2022/09/18 07:23:04;;;;;;;0.43;0.43;;;21.20;54.00;;;;;;5030863;28;20032;-65
2022/09/18 07:25:33;;;;;;;0.30;0.30;;;21.20;54.00;;;;;;5030766;28;20033;-65
2022/09/18 07:28:05;;;;;;;0.40;0.40;;;21.20;54.10;;;;;;5030457;28;20021;-65
2022/09/18 07:30:30;;;;;;;0.63;0.40;;;21.20;54.10;;;;;;5030096;28;20398;-65
2022/09/18 07:32:56;;;;;;;0.47;0.40;;;21.20;54.30;;;;;;5031128;28;20045;-65
2022/09/18 07:35:22;;;;;;;0.45;0.45;;;21.20;54.10;;;;;;5030685;28;20061;-65
2022/09/18 07:37:47;;;;;;;0.50;0.50;;;21.20;54.00;;;;;;5030716;28;20409;-65
2022/09/18 07:40:13;;;;;;;0.50;0.47;;;21.20;54.00;;;;;;5030559;28;20103;-65
2022/09/18 07:42:39;;;;;;;0.50;0.50;;;21.20;54.00;;;;;;5030633;28;20030;-65
2022/09/18 07:45:05;;;;;;;0.35;0.35;;;21.20;54.10;;;;;;5030705;28;20033;-65
2022/09/18 07:47:30;;;;;;;0.40;0.40;;;21.10;54.10;;;;;;5030539;28;20681;-64
2022/09/18 07:49:56;;;;;;;0.63;0.40;;;21.20;54.60;;;;;;5030528;28;20021;-65
2022/09/18 07:52:21;;;;;;;1.27;0.50;;;21.10;54.00;;;;;;5030533;28;20053;-65
2022/09/18 07:54:47;;;;;;;0.63;0.40;;;21.10;54.00;;;;;;5030489;28;20036;-65
2022/09/18 07:57:13;;;;;;;0.50;0.40;;;21.10;54.00;;;;;;5030491;28;20060;-65
2022/09/18 07:59:38;;;;;;;0.45;0.40;;;21.10;54.10;;;;;;5003808;28;20026;-65
2022/09/18 08:02:04;;;;;;;0.65;0.40;;;21.10;54.00;;;;;;5029943;28;20095;-65
2022/09/18 08:04:30;;;;;;;0.63;0.50;;;21.10;54.00;;;;;;5030362;28;20151;-65
2022/09/18 08:07:02;;;;;;;0.80;0.50;;;21.10;54.10;;;;;;5030185;28;20108;-65
2022/09/18 08:09:27;;;;;;;0.90;0.50;;;21.10;54.10;;;;;;5030374;28;20030;-65
2022/09/18 08:11:53;;;;;;;0.55;0.50;;;21.10;54.10;;;;;;5030251;28;20026;-65
2022/09/18 08:14:19;;;;;;;1.08;0.50;;;21.10;54.10;;;;;;5030280;28;20427;-65
2022/09/18 08:16:45;;;;;;;0.40;0.40;;;21.10;54.10;;;;;;5030314;28;20048;-65
2022/09/18 08:19:11;;;;;;;0.68;0.47;;;21.10;54.10;;;;;;5030224;28;20018;-65
2022/09/18 08:21:37;;;;;;;0.75;0.50;;;21.10;54.10;;;;;;5020818;28;20393;-65
2022/09/18 08:24:03;;;;;;;0.50;0.50;;;21.10;54.10;;;;;;5003507;28;20036;-65
2022/09/18 08:26:28;;;;;;;0.50;0.40;;;21.10;54.10;;;;;;5030372;28;20389;-65
2022/09/18 08:28:54;;;;;;;1.02;0.50;;;21.10;54.10;;;;;;5030249;28;20025;-65
2022/09/18 08:31:20;;;;;;;0.57;0.40;;;21.10;54.20;;;;;;5029599;28;20187;-65
2022/09/18 08:33:45;;;;;;;0.65;0.45;;;21.10;54.20;;;;;;5014724;28;20025;-65
2022/09/18 08:36:11;;;;;;;0.40;0.40;;;21.10;54.20;;;;;;5033826;28;20385;-65
2022/09/18 08:38:36;;;;;;;0.57;0.47;;;21.10;54.20;;;;;;5034363;28;20034;-65
2022/09/18 08:41:20;;;;;;;0.80;0.50;;;21.10;54.20;;;;;;5033629;28;20029;-65
2022/09/18 08:43:55;;;;;;;0.75;0.50;;;21.10;54.20;;;;;;5033298;28;20036;-65
2022/09/18 08:46:30;;;;;;;0.95;0.50;;;21.10;54.30;;;;;;5032953;28;20548;-65
2022/09/18 08:49:24;;;;;;;0.68;0.50;;;21.10;54.30;;;;;;5033547;28;20393;-65
2022/09/18 08:52:05;;;;;;;0.43;0.43;;;21.10;54.30;;;;;;5014750;28;20029;-64
2022/09/18 08:54:54;;;;;;;0.50;0.47;;;21.10;54.30;;;;;;5032877;28;20358;-64
2022/09/18 08:57:54;;;;;;;1.27;0.60;;;21.10;54.30;;;;;;5007263;28;20057;-64
2022/09/18 09:00:30;;;;;;;0.90;0.55;;;21.10;54.40;;;;;;4975725;28;20419;-65
2022/09/18 09:03:27;;;;;;;0.70;0.60;;;21.00;54.30;;;;;;5033174;28;20022;-65
2022/09/18 09:05:58;;;;;;;0.70;0.50;;;21.10;54.40;;;;;;5032650;28;20489;-65
2022/09/18 09:08:54;;;;;;;1.08;0.50;;;21.10;54.40;;;;;;5033206;28;20029;-65
2022/09/18 09:11:29;;;;;;;0.82;0.55;;;21.10;54.40;;;;;;5033188;28;20362;-65
2022/09/18 09:14:07;;;;;;;0.50;0.43;;;21.10;54.50;;;;;;5032866;28;20037;-65
2022/09/18 09:17:15;;;;;;;0.97;0.57;;;21.00;54.40;;;;;;5031508;28;20038;-65
2022/09/18 09:19:51;;;;;;;0.90;0.50;;;21.00;54.50;;;;;;4933278;29;20028;-65
2022/09/18 09:22:24;;;;;;;0.65;0.50;;;21.00;55.00;;;;;;4933378;29;20531;-65
2022/09/18 09:25:36;;;;;;;0.75;0.43;;;21.00;55.00;;;;;;4993587;28;20541;-65
2022/09/18 09:28:09;;;;;;;1.08;0.65;;;21.00;54.50;;;;;;5031873;28;20406;-65
2022/09/18 09:30:36;;;;;;;1.10;0.60;;;21.00;54.50;;;;;;5031512;28;20061;-65
2022/09/18 09:33:39;;;;;;;1.08;0.60;;;21.00;54.50;;;;;;5032556;28;20021;-65
2022/09/18 09:36:12;;;;;;;0.52;0.45;;;21.00;54.50;;;;;;5032641;28;20136;-65
2022/09/18 09:39:19;;;;;;;1.33;0.52;;;21.00;54.60;;;;;;5032385;28;20512;-65
2022/09/18 09:41:59;;;;;;;0.57;0.57;;;21.00;54.60;;;;;;5031647;28;20709;-64
2022/09/18 09:44:42;;;;;;;1.90;0.60;;;21.00;55.20;;;;;;5031569;28;20025;-65
2022/09/18 09:47:26;;;;;;;1.08;0.60;;;21.00;54.70;;;;;;5032337;28;20074;-65
2022/09/18 09:50:08;;;;;;;0.68;0.50;;;21.00;54.70;;;;;;5031948;28;20106;-64
2022/09/18 09:52:36;;;;;;;1.17;0.60;;;21.00;54.70;;;;;;5031834;28;20040;-64
2022/09/18 09:55:18;;;;;;;1.30;0.70;;;21.00;54.70;;;;;;5032295;28;20100;-64
2022/09/18 09:58:05;;;;;;;0.57;0.50;;;21.00;54.70;;;;;;5032219;28;20029;-64
2022/09/18 10:00:45;;;;;;;1.77;0.60;;;21.00;54.70;;;;;;5031429;28;20034;-64
2022/09/18 10:03:38;;;;;;;1.20;0.68;;;21.00;54.70;;;;;;5030727;28;20388;-64
2022/09/18 10:06:10;;;;;;;1.08;0.68;;;21.00;54.70;;;;;;5031233;28;20184;-64
2022/09/18 10:08:43;;;;;;;1.60;0.70;;;21.00;54.70;;;;;;5030592;28;20109;-64
2022/09/18 10:11:10;;;;;;;1.13;0.55;;;21.00;54.70;;;;;;5031830;28;20029;-64
2022/09/18 10:13:45;;;;;;;1.08;0.70;;;21.00;54.70;;;;;;5031872;28;20357;-65
2022/09/18 10:16:32;;;;;;;0.80;0.50;;;21.00;54.70;;;;;;5031813;28;20057;-64
2022/09/18 10:18:59;;;;;;;1.17;0.60;;;21.00;54.70;;;;;;5013957;28;20045;-64
2022/09/18 10:21:27;;;;;;;1.95;0.70;;;21.00;54.70;;;;;;5031831;28;20104;-64
2022/09/18 10:23:57;;;;;;;1.15;0.63;;;21.00;54.70;;;;;;5031530;28;20029;-64
2022/09/18 10:26:27;;;;;;;1.35;0.60;;;21.00;54.80;;;;;;5031842;28;20076;-64
2022/09/18 10:28:52;;;;;;;;;;;21.00;54.70;;;;;;5032214;28;20476;-64
2022/09/18 10:31:18;;;;;;;1.50;0.70;;;21.00;54.80;;;;;;5031173;28;19913;-64
2022/09/18 10:33:51;;;;;;;1.23;0.80;;;21.00;54.80;;;;;;5013803;28;20059;-64
2022/09/18 10:36:31;;;;;;;1.02;0.70;;;21.00;54.80;;;;;;5031492;28;20025;-64
2022/09/18 10:38:58;;;;;;;1.50;0.77;;;21.00;54.70;;;;;;5030722;28;20025;-64
2022/09/18 10:41:29;;;;;;;1.67;0.70;;;21.00;54.80;;;;;;5031241;28;20021;-64
2022/09/18 10:44:09;;;;;;;1.10;0.55;;;21.00;54.80;;;;;;5030957;28;20021;-64
2022/09/18 10:46:38;;;;;;;1.17;0.70;;;21.00;54.70;;;;;;5031293;28;20116;-64
2022/09/18 10:49:27;;;;;;;1.27;0.70;;;21.00;54.70;;;;;;5031517;28;20041;-64
2022/09/18 10:52:18;;;;;;;1.38;0.63;;;21.00;54.70;;;;;;5031039;28;20750;-64
2022/09/18 10:55:06;;;;;;;0.90;0.60;;;21.00;54.70;;;;;;5030243;28;20031;-64
2022/09/18 10:58:00;;;;;;;1.52;0.90;;;21.00;54.70;;;;;;5037851;28;20030;-64
2022/09/18 11:00:28;;;;;;;0.95;0.70;;;21.00;54.80;;;;;;5038220;28;20044;-65
2022/09/18 11:03:16;;;;;;;1.25;0.70;;;21.00;54.80;;;;;;5037397;28;20017;-64
2022/09/18 11:05:54;;;;;;;1.77;0.73;;;21.10;54.80;;;;;;5038847;28;20025;-64
2022/09/18 11:08:23;;;;;;;1.83;0.75;;;21.10;54.60;;;;;;5041186;28;20343;-64
2022/09/18 11:10:52;;;;;;;1.33;0.82;;;21.10;54.50;;;;;;5038542;28;20040;-64
2022/09/18 11:13:23;;;;;;;1.60;0.90;;;21.20;54.50;;;;;;5032580;28;20029;-64
2022/09/18 11:15:55;;;;;;;1.40;0.70;;;21.20;54.50;;;;;;5030802;28;20053;-64
2022/09/18 11:18:22;;;;;;;1.30;0.60;;;21.20;54.50;;;;;;5030528;28;20033;-64
2022/09/18 11:20:49;;;;;;;1.33;0.82;;;21.20;54.50;;;;;;5031041;28;20549;-64
2022/09/18 11:23:17;;;;;;;1.02;0.70;;;21.20;54.40;;;;;;5030877;28;20045;-64
2022/09/18 11:25:44;;;;;;;1.23;0.70;;;21.20;54.40;;;;;;5030859;28;20037;-63
2022/09/18 11:28:26;;;;;;;1.10;0.70;;;21.20;54.30;;;;;;5004490;28;20036;-63
2022/09/18 11:31:14;;;;;;;1.20;0.70;;;21.20;54.30;;;;;;5029936;28;20481;-63
2022/09/18 11:33:56;;;;;;;1.20;0.60;;;21.20;54.30;;;;;;5029889;28;20412;-63
2022/09/18 11:36:28;;;;;;;0.80;0.70;;;21.20;54.30;;;;;;5030207;28;20040;-63
2022/09/18 11:38:57;;;;;;;1.83;0.73;;;21.20;54.30;;;;;;5030577;28;20053;-63
2022/09/18 11:41:42;;;;;;;2.45;0.73;;;21.20;54.20;;;;;;5030754;28;20481;-63
2022/09/18 11:44:17;;;;;;;1.45;0.70;;;21.20;54.20;;;;;;5030632;28;20041;-63
2022/09/18 11:47:03;;;;;;;1.55;0.70;;;21.20;54.20;;;;;;5029456;28;20032;-63
2022/09/18 11:49:39;;;;;;;1.77;0.70;;;21.20;54.20;;;;;;5028982;28;20539;-63
2022/09/18 11:52:13;;;;;;;0.60;0.50;;;21.20;54.20;;;;;;5029493;28;20485;-63
2022/09/18 11:54:50;;;;;;;1.77;0.70;;;21.20;54.20;;;;;;5029657;28;20462;-63
2022/09/18 11:57:21;;;;;;;1.38;0.68;;;21.20;54.20;;;;;;5029754;28;20079;-63
2022/09/18 12:00:03;;;;;;;1.40;0.70;;;21.20;54.20;;;;;;5029981;28;20036;-62
2022/09/18 12:02:31;;;;;;;2.33;0.90;;;21.20;54.20;;;;;;5028996;28;20037;-63
2022/09/18 12:05:03;;;;;;;2.05;1.00;;;21.20;54.20;;;;;;5029437;28;20082;-63
2022/09/18 12:07:40;;;;;;;1.20;0.60;;;21.20;54.60;;;;;;5021487;28;20133;-63
2022/09/18 12:10:30;;;;;;;1.98;0.63;;;21.20;54.10;;;;;;5032719;28;20037;-63
2022/09/18 12:13:14;;;;;;;1.27;0.60;;;21.20;54.10;;;;;;5033267;28;20473;-64
2022/09/18 12:15:42;;;;;;;1.45;0.70;;;21.20;54.10;;;;;;5033701;28;20393;-63
2022/09/18 12:18:14;;;;;;;1.30;0.60;;;21.20;54.10;;;;;;5033102;28;20025;-63
2022/09/18 12:20:48;;;;;;;2.00;0.70;;;21.20;54.10;;;;;;5032340;28;20026;-63
2022/09/18 12:23:21;;;;;;;2.97;0.80;;;21.20;54.20;;;;;;5031766;28;20057;-63
2022/09/18 12:26:01;;;;;;;1.45;0.70;;;21.20;54.10;;;;;;5034000;28;20033;-63
2022/09/18 12:28:31;;;;;;;;;;;21.20;54.10;;;;;;5033926;28;20384;-63
2022/09/18 12:31:41;;;;;;;2.08;0.85;;;21.20;54.10;;;;;;5031946;28;19967;-64
2022/09/18 12:34:17;;;;;;;1.73;0.90;;;21.20;54.10;;;;;;5020162;28;20048;-63
2022/09/18 12:37:13;;;;;;;1.17;0.70;;;21.20;54.10;;;;;;5032015;28;20060;-63
2022/09/18 12:40:05;;;;;;;1.30;0.70;;;21.20;54.10;;;;;;5030758;28;20030;-63
2022/09/18 12:42:55;;;;;;;2.92;0.80;;;21.20;54.10;;;;;;5005177;28;20453;-63
2022/09/18 12:46:00;;;;;;;0.93;0.70;;;21.20;54.10;;;;;;5031663;28;20373;-64
2022/09/18 12:49:20;;;;;;;1.50;0.70;;;21.20;54.10;;;;;;4936575;28;20044;-62
2022/09/18 12:52:21;;;;;;;2.50;0.80;;;21.20;54.20;;;;;;4963103;28;20092;-63
2022/09/18 12:55:02;;;;;;;1.55;0.70;;;21.20;54.20;;;;;;4994511;28;20136;-63
2022/09/18 12:57:48;;;;;;;1.77;0.70;;;21.20;54.20;;;;;;5032261;28;20539;-63
2022/09/18 13:00:15;;;;;;;1.60;0.75;;;21.20;54.30;;;;;;5031852;28;20112;-63
2022/09/18 13:02:50;;;;;;;1.38;0.77;;;21.20;54.20;;;;;;5033320;28;20032;-63
2022/09/18 13:05:37;;;;;;;1.27;0.68;;;21.20;54.20;;;;;;5033145;28;20036;-63
2022/09/18 13:08:23;;;;;;;1.83;0.80;;;21.20;54.20;;;;;;5032763;28;20026;-64
2022/09/18 13:10:54;;;;;;;1.90;0.73;;;21.20;54.20;;;;;;5031434;28;20030;-63
2022/09/18 13:13:42;;;;;;;1.85;0.80;;;21.20;54.30;;;;;;5033112;28;20029;-63